createdAt,value
2018-09-22T00:00:46.783Z,8.30
2018-09-22T00:01:46.765Z,9.70
2018-09-22T00:02:46.743Z,7.50
2018-09-22T00:03:46.734Z,8.20
2018-09-22T00:04:46.707Z,8.50
2018-09-22T00:05:46.685Z,5.10
2018-09-22T00:06:46.667Z,6.50
2018-09-22T00:07:46.647Z,9.80
2018-09-22T00:08:46.632Z,10.50
2018-09-22T00:09:46.623Z,10.60
2018-09-22T00:10:46.589Z,9.00
2018-09-22T00:11:46.572Z,7.40
2018-09-22T00:12:46.554Z,8.40
2018-09-22T00:13:46.529Z,7.50
2018-09-22T00:14:46.508Z,9.30
2018-09-22T00:15:46.489Z,8.20
2018-09-22T00:16:46.472Z,7.60
2018-09-22T00:17:46.449Z,8.80
2018-09-22T00:18:46.428Z,7.80
2018-09-22T00:19:46.408Z,8.70
2018-09-22T00:20:46.393Z,6.00
2018-09-22T00:21:46.428Z,12.50
2018-09-22T00:22:46.348Z,6.60
2018-09-22T00:23:46.336Z,9.90
2018-09-22T00:24:46.312Z,8.70
2018-09-22T00:25:46.295Z,7.80
2018-09-22T00:26:46.276Z,9.70
2018-09-22T00:27:46.260Z,6.00
2018-09-22T00:28:46.233Z,6.80
2018-09-22T00:29:46.214Z,11.70
2018-09-22T00:30:46.195Z,9.40
2018-09-22T00:31:46.173Z,10.20
2018-09-22T00:32:46.154Z,9.20
2018-09-22T00:33:46.147Z,8.90
2018-09-22T00:34:46.116Z,8.10
2018-09-22T00:35:46.099Z,8.10
2018-09-22T00:36:46.084Z,7.10
2018-09-22T00:37:46.056Z,7.70
2018-09-22T00:38:46.038Z,8.70
2018-09-22T00:39:46.019Z,10.40
2018-09-22T00:40:45.997Z,7.20
2018-09-22T00:41:45.978Z,6.80
2018-09-22T00:42:45.956Z,8.40
2018-09-22T00:43:45.948Z,8.00
2018-09-22T00:44:45.920Z,7.30
2018-09-22T00:45:45.899Z,7.10
2018-09-22T00:46:45.878Z,10.20
2018-09-22T00:47:45.860Z,10.70
2018-09-22T00:48:45.840Z,9.00
2018-09-22T00:49:45.822Z,9.00
2018-09-22T00:50:45.802Z,7.70
2018-09-22T00:51:45.783Z,10.50
2018-09-22T00:52:45.770Z,6.60
2018-09-22T00:53:45.741Z,9.20
2018-09-22T00:54:45.719Z,7.40
2018-09-22T00:55:45.700Z,6.80
2018-09-22T00:56:45.680Z,9.70
2018-09-22T00:57:45.661Z,8.10
2018-09-22T00:58:45.646Z,9.00
2018-09-22T00:59:45.621Z,8.90
2018-09-22T01:00:45.601Z,9.40
2018-09-22T01:01:45.583Z,7.80
2018-09-22T01:02:45.567Z,6.50
2018-09-22T01:03:45.543Z,8.10
2018-09-22T01:04:45.524Z,6.30
2018-09-22T01:05:45.504Z,7.90
2018-09-22T01:06:45.483Z,9.10
2018-09-22T01:07:45.464Z,5.60
2018-09-22T01:08:45.445Z,7.30
2018-09-22T01:09:45.426Z,6.60
2018-09-22T01:10:45.405Z,9.20
2018-09-22T01:11:45.385Z,9.70
2018-09-22T01:12:45.365Z,7.60
2018-09-22T01:13:45.348Z,8.90
2018-09-22T01:14:45.338Z,8.30
2018-09-22T01:15:45.374Z,8.30
2018-09-22T01:16:45.284Z,7.40
2018-09-22T01:17:45.274Z,7.40
2018-09-22T01:18:45.249Z,8.80
2018-09-22T01:19:45.235Z,8.90
2018-09-22T01:20:45.209Z,10.60
2018-09-22T01:21:45.187Z,10.10
2018-09-22T01:22:45.172Z,10.60
2018-09-22T01:23:45.148Z,8.30
2018-09-22T01:24:45.127Z,6.50
2018-09-22T01:25:45.107Z,9.10
2018-09-22T01:26:45.087Z,9.80
2018-09-22T01:27:45.066Z,8.20
2018-09-22T01:28:45.051Z,7.40
2018-09-22T01:29:45.028Z,8.20
2018-09-22T01:30:45.007Z,10.40
2018-09-22T01:31:44.996Z,9.10
2018-09-22T01:32:44.969Z,6.90
2018-09-22T01:33:44.947Z,10.10
2018-09-22T01:34:44.928Z,9.40
2018-09-22T01:35:44.908Z,8.50
2018-09-22T01:36:44.889Z,10.80
2018-09-22T01:37:44.868Z,8.40
2018-09-22T01:38:44.854Z,9.50
2018-09-22T01:39:44.828Z,9.80
2018-09-22T01:40:44.811Z,7.70
2018-09-22T01:41:44.790Z,12.10
2018-09-22T01:42:44.769Z,9.40
2018-09-22T01:43:44.751Z,9.60
2018-09-22T01:44:44.731Z,10.20
2018-09-22T01:45:44.711Z,8.40
2018-09-22T01:46:44.692Z,6.30
2018-09-22T01:47:44.671Z,11.50
2018-09-22T01:48:44.650Z,9.00
2018-09-22T01:49:44.634Z,7.60
2018-09-22T01:50:44.613Z,10.10
2018-09-22T01:51:44.595Z,7.90
2018-09-22T01:52:44.570Z,9.70
2018-09-22T01:53:44.551Z,7.40
2018-09-22T01:54:44.535Z,8.50
2018-09-22T01:55:44.513Z,6.70
2018-09-22T01:56:44.491Z,8.70
2018-09-22T01:57:44.473Z,9.30
2018-09-22T01:58:44.461Z,7.70
2018-09-22T01:59:44.430Z,8.80
2018-09-22T02:00:44.413Z,8.20
2018-09-22T02:01:44.392Z,7.50
2018-09-22T02:02:44.372Z,6.80
2018-09-22T02:03:44.351Z,7.90
2018-09-22T02:04:44.345Z,9.60
2018-09-22T02:05:44.314Z,7.00
2018-09-22T02:06:44.296Z,8.20
2018-09-22T02:07:44.278Z,6.00
2018-09-22T02:08:44.254Z,6.10
2018-09-22T02:09:44.233Z,10.10
2018-09-22T02:10:44.285Z,9.00
2018-09-22T02:11:44.193Z,6.70
2018-09-22T02:12:44.174Z,7.80
2018-09-22T02:13:44.158Z,6.00
2018-09-22T02:14:44.133Z,5.50
2018-09-22T02:15:44.114Z,4.80
2018-09-22T02:16:44.095Z,6.50
2018-09-22T02:17:44.074Z,8.00
2018-09-22T02:18:44.064Z,10.50
2018-09-22T02:19:44.035Z,8.10
2018-09-22T02:20:44.018Z,5.80
2018-09-22T02:21:43.996Z,7.10
2018-09-22T02:22:43.974Z,6.20
2018-09-22T02:23:43.956Z,6.10
2018-09-22T02:24:43.939Z,6.10
2018-09-22T02:25:43.918Z,7.30
2018-09-22T02:26:43.898Z,6.90
2018-09-22T02:27:43.875Z,5.50
2018-09-22T02:28:43.856Z,7.60
2018-09-22T02:29:43.839Z,6.80
2018-09-22T02:30:43.818Z,8.40
2018-09-22T02:31:43.796Z,8.70
2018-09-22T02:32:43.777Z,5.50
2018-09-22T02:33:43.758Z,6.70
2018-09-22T02:34:43.737Z,6.30
2018-09-22T02:35:43.720Z,5.90
2018-09-22T02:36:43.706Z,7.30
2018-09-22T02:37:43.679Z,7.00
2018-09-22T02:38:43.659Z,9.70
2018-09-22T02:39:43.640Z,10.20
2018-09-22T02:40:43.618Z,8.30
2018-09-22T02:41:43.599Z,8.50
2018-09-22T02:42:43.578Z,7.80
2018-09-22T02:43:43.558Z,8.30
2018-09-22T02:44:43.541Z,9.50
2018-09-22T02:45:43.520Z,11.20
2018-09-22T02:46:43.499Z,10.90
2018-09-22T02:47:43.483Z,8.00
2018-09-22T02:48:43.459Z,5.80
2018-09-22T02:49:43.438Z,9.30
2018-09-22T02:50:43.420Z,7.30
2018-09-22T02:51:43.400Z,7.60
2018-09-22T02:52:43.380Z,7.70
2018-09-22T02:53:43.359Z,6.10
2018-09-22T02:54:43.340Z,8.80
2018-09-22T02:55:43.319Z,9.20
2018-09-22T02:56:43.301Z,8.00
2018-09-22T02:57:43.280Z,9.20
2018-09-22T02:58:43.259Z,6.90
2018-09-22T02:59:43.246Z,7.40
2018-09-22T03:00:43.227Z,7.20
2018-09-22T03:01:43.198Z,8.80
2018-09-22T03:02:43.180Z,10.40
2018-09-22T03:03:43.158Z,9.20
2018-09-22T03:04:43.142Z,7.30
2018-09-22T03:05:43.124Z,8.90
2018-09-22T03:06:43.120Z,8.00
2018-09-22T03:07:43.080Z,5.20
2018-09-22T03:08:43.067Z,7.10
2018-09-22T03:09:43.040Z,8.80
2018-09-22T03:10:43.019Z,9.30
2018-09-22T03:11:43.024Z,9.80
2018-09-22T03:12:42.980Z,9.60
2018-09-22T03:13:42.965Z,8.80
2018-09-22T03:14:42.951Z,7.10
2018-09-22T03:15:42.920Z,8.60
2018-09-22T03:16:42.901Z,11.60
2018-09-22T03:17:42.881Z,12.50
2018-09-22T03:18:42.860Z,9.70
2018-09-22T03:19:42.840Z,12.00
2018-09-22T03:20:42.819Z,10.60
2018-09-22T03:21:42.802Z,11.90
2018-09-22T03:22:42.779Z,8.60
2018-09-22T03:23:42.761Z,8.80
2018-09-22T03:24:42.747Z,8.30
2018-09-22T03:25:42.721Z,10.30
2018-09-22T03:26:42.703Z,6.20
2018-09-22T03:27:42.681Z,9.40
2018-09-22T03:28:42.665Z,7.20
2018-09-22T03:29:42.642Z,10.50
2018-09-22T03:30:42.649Z,11.30
2018-09-22T03:31:42.606Z,10.00
2018-09-22T03:32:42.587Z,9.10
2018-09-22T03:33:42.563Z,9.60
2018-09-22T03:34:42.545Z,9.00
2018-09-22T03:35:42.521Z,8.30
2018-09-22T03:36:42.511Z,8.40
2018-09-22T03:37:42.481Z,10.40
2018-09-22T03:38:42.466Z,10.80
2018-09-22T03:39:42.449Z,10.00
2018-09-22T03:40:42.424Z,9.60
2018-09-22T03:41:42.403Z,7.50
2018-09-22T03:42:42.395Z,8.00
2018-09-22T03:43:42.373Z,9.50
2018-09-22T03:44:42.342Z,8.20
2018-09-22T03:45:42.326Z,10.00
2018-09-22T03:46:42.312Z,10.60
2018-09-22T03:47:42.290Z,14.10
2018-09-22T03:48:42.264Z,8.90
2018-09-22T03:49:42.245Z,8.70
2018-09-22T03:50:42.226Z,10.60
2018-09-22T03:51:42.203Z,12.80
2018-09-22T03:52:42.183Z,12.10
2018-09-22T03:53:42.163Z,10.20
2018-09-22T03:54:42.146Z,7.00
2018-09-22T03:55:42.133Z,8.20
2018-09-22T03:56:42.103Z,8.00
2018-09-22T03:57:42.090Z,8.60
2018-09-22T03:58:42.064Z,11.30
2018-09-22T03:59:42.054Z,8.10
2018-09-22T04:00:42.023Z,12.50
2018-09-22T04:01:42.005Z,8.00
2018-09-22T04:02:41.984Z,9.20
2018-09-22T04:03:41.965Z,11.90
2018-09-22T04:04:41.944Z,9.20
2018-09-22T04:05:41.924Z,9.40
2018-09-22T04:06:41.905Z,12.40
2018-09-22T04:07:41.884Z,10.70
2018-09-22T04:08:41.865Z,9.20
2018-09-22T04:09:41.846Z,10.70
2018-09-22T04:10:41.826Z,10.20
2018-09-22T04:11:41.813Z,11.80
2018-09-22T04:12:41.788Z,10.20
2018-09-22T04:13:41.764Z,8.70
2018-09-22T04:14:41.744Z,10.10
2018-09-22T04:15:41.724Z,10.70
2018-09-22T04:16:41.709Z,11.10
2018-09-22T04:17:41.687Z,10.80
2018-09-22T04:18:41.666Z,14.60
2018-09-22T04:19:41.645Z,9.20
2018-09-22T04:20:41.637Z,12.70
2018-09-22T04:21:41.606Z,12.50
2018-09-22T04:22:41.586Z,11.30
2018-09-22T04:23:41.566Z,10.30
2018-09-22T04:24:41.552Z,9.50
2018-09-22T04:25:41.526Z,12.80
2018-09-22T04:26:41.508Z,11.30
2018-09-22T04:27:41.486Z,12.80
2018-09-22T04:28:41.467Z,11.10
2018-09-22T04:29:41.456Z,13.00
2018-09-22T04:30:41.430Z,12.10
2018-09-22T04:31:41.408Z,11.70
2018-09-22T04:32:41.388Z,8.20
2018-09-22T04:33:41.372Z,11.50
2018-09-22T04:34:41.346Z,10.70
2018-09-22T04:35:41.329Z,8.70
2018-09-22T04:36:41.307Z,14.00
2018-09-22T04:37:41.288Z,8.10
2018-09-22T04:38:41.269Z,8.90
2018-09-22T04:39:41.247Z,9.20
2018-09-22T04:40:41.228Z,14.70
2018-09-22T04:41:41.243Z,9.40
2018-09-22T04:42:41.188Z,11.10
2018-09-22T04:43:41.169Z,9.50
2018-09-22T04:44:41.148Z,12.80
2018-09-22T04:45:41.129Z,11.60
2018-09-22T04:46:41.111Z,14.00
2018-09-22T04:47:41.090Z,11.30
2018-09-22T04:48:41.081Z,9.70
2018-09-22T04:49:41.049Z,13.50
2018-09-22T04:50:41.032Z,10.50
2018-09-22T04:51:41.012Z,10.40
2018-09-22T04:52:40.989Z,12.70
2018-09-22T04:53:40.968Z,11.30
2018-09-22T04:54:40.948Z,10.70
2018-09-22T04:55:40.926Z,12.30
2018-09-22T04:56:40.910Z,10.20
2018-09-22T04:57:40.899Z,10.00
2018-09-22T04:58:40.866Z,8.80
2018-09-22T04:59:40.849Z,12.50
2018-09-22T05:00:40.826Z,12.80
2018-09-22T05:01:40.808Z,10.70
2018-09-22T05:02:40.786Z,11.20
2018-09-22T05:03:40.766Z,10.00
2018-09-22T05:04:40.748Z,11.20
2018-09-22T05:05:40.736Z,7.50
2018-09-22T05:06:40.706Z,10.30
2018-09-22T05:07:40.745Z,14.20
2018-09-22T05:08:40.668Z,12.00
2018-09-22T05:09:40.655Z,14.40
2018-09-22T05:10:40.626Z,11.30
2018-09-22T05:11:40.607Z,11.10
2018-09-22T05:12:40.594Z,11.30
2018-09-22T05:13:40.570Z,11.10
2018-09-22T05:14:40.548Z,9.00
2018-09-22T05:15:40.529Z,10.50
2018-09-22T05:16:40.506Z,10.20
2018-09-22T05:17:40.488Z,7.60
2018-09-22T05:18:40.478Z,11.40
2018-09-22T05:19:40.448Z,10.80
2018-09-22T05:20:40.425Z,11.30
2018-09-22T05:21:40.406Z,10.50
2018-09-22T05:22:40.386Z,11.40
2018-09-22T05:23:40.367Z,10.60
2018-09-22T05:24:40.385Z,12.30
2018-09-22T05:25:40.327Z,8.80
2018-09-22T05:26:40.307Z,13.70
2018-09-22T05:27:40.290Z,10.80
2018-09-22T05:28:40.269Z,10.20
2018-09-22T05:29:40.260Z,10.40
2018-09-22T05:30:40.226Z,11.70
2018-09-22T05:31:40.208Z,11.30
2018-09-22T05:32:40.191Z,9.60
2018-09-22T05:33:40.168Z,9.80
2018-09-22T05:34:40.147Z,12.10
2018-09-22T05:35:40.132Z,10.60
2018-09-22T05:36:40.120Z,8.30
2018-09-22T05:37:40.103Z,14.40
2018-09-22T05:38:40.066Z,10.70
2018-09-22T05:39:40.048Z,16.80
2018-09-22T05:40:40.031Z,10.60
2018-09-22T05:41:40.052Z,10.10
2018-09-22T05:42:39.989Z,14.50
2018-09-22T05:43:39.972Z,11.80
2018-09-22T05:44:39.992Z,10.80
2018-09-22T05:45:39.930Z,9.20
2018-09-22T05:46:39.909Z,10.40
2018-09-22T05:47:39.893Z,10.90
2018-09-22T05:48:39.867Z,9.40
2018-09-22T05:49:39.853Z,9.80
2018-09-22T05:50:39.831Z,9.50
2018-09-22T05:51:39.810Z,13.80
2018-09-22T05:52:39.789Z,11.40
2018-09-22T05:53:39.770Z,14.10
2018-09-22T05:54:39.750Z,13.00
2018-09-22T05:55:39.730Z,9.60
2018-09-22T05:56:39.709Z,9.60
2018-09-22T05:57:39.689Z,11.40
2018-09-22T05:58:39.669Z,11.30
2018-09-22T05:59:39.651Z,10.70
2018-09-22T06:00:39.631Z,11.90
2018-09-22T06:01:39.609Z,10.50
2018-09-22T06:02:39.592Z,13.70
2018-09-22T06:03:39.641Z,12.70
2018-09-22T06:04:39.551Z,13.70
2018-09-22T06:05:39.531Z,12.40
2018-09-22T06:06:39.511Z,12.10
2018-09-22T06:07:39.491Z,12.30
2018-09-22T06:08:39.475Z,10.30
2018-09-22T06:09:39.662Z,13.20
2018-09-22T06:10:39.430Z,12.70
2018-09-22T06:11:39.414Z,13.30
2018-09-22T06:12:39.391Z,11.40
2018-09-22T06:13:39.374Z,12.40
2018-09-22T06:14:39.350Z,12.20
2018-09-22T06:15:39.331Z,12.30
2018-09-22T06:16:39.312Z,13.20
2018-09-22T06:17:39.295Z,9.20
2018-09-22T06:18:39.271Z,12.30
2018-09-22T06:19:39.251Z,9.90
2018-09-22T06:20:39.230Z,10.40
2018-09-22T06:21:39.215Z,11.00
2018-09-22T06:22:39.191Z,14.40
2018-09-22T06:23:39.173Z,10.80
2018-09-22T06:24:39.151Z,9.50
2018-09-22T06:25:39.131Z,11.90
2018-09-22T06:26:39.113Z,13.30
2018-09-22T06:27:39.092Z,12.00
2018-09-22T06:28:39.078Z,11.30
2018-09-22T06:29:39.051Z,9.80
2018-09-22T06:30:39.032Z,12.10
2018-09-22T06:31:39.013Z,12.00
2018-09-22T06:32:38.993Z,10.80
2018-09-22T06:33:38.983Z,11.90
2018-09-22T06:34:38.956Z,8.90
2018-09-22T06:35:38.934Z,11.10
2018-09-22T06:36:38.915Z,9.10
2018-09-22T06:37:38.900Z,12.60
2018-09-22T06:38:38.876Z,12.00
2018-09-22T06:39:38.856Z,8.30
2018-09-22T06:40:38.837Z,14.00
2018-09-22T06:41:38.822Z,11.60
2018-09-22T06:42:38.798Z,9.10
2018-09-22T06:43:38.778Z,10.00
2018-09-22T06:44:38.758Z,13.00
2018-09-22T06:45:38.737Z,11.90
2018-09-22T06:46:38.718Z,11.00
2018-09-22T06:47:38.702Z,11.30
2018-09-22T06:48:38.681Z,10.30
2018-09-22T06:49:38.660Z,12.60
2018-09-22T06:50:38.638Z,10.00
2018-09-22T06:51:38.619Z,12.10
2018-09-22T06:52:38.603Z,13.90
2018-09-22T06:53:38.585Z,11.10
2018-09-22T06:54:38.561Z,11.00
2018-09-22T06:55:38.538Z,10.10
2018-09-22T06:56:38.526Z,11.50
2018-09-22T06:57:38.502Z,9.10
2018-09-22T06:58:38.479Z,13.20
2018-09-22T06:59:38.463Z,12.20
2018-09-22T07:00:38.440Z,13.80
2018-09-22T07:01:38.423Z,12.10
2018-09-22T07:02:38.406Z,11.90
2018-09-22T07:03:38.387Z,12.00
2018-09-22T07:04:38.361Z,10.00
2018-09-22T07:05:38.343Z,9.30
2018-09-22T07:06:38.326Z,12.60
2018-09-22T07:07:38.307Z,14.00
2018-09-22T07:08:38.285Z,10.90
2018-09-22T07:09:38.263Z,12.90
2018-09-22T07:10:38.247Z,14.20
2018-09-22T07:11:38.229Z,11.60
2018-09-22T07:12:38.206Z,10.00
2018-09-22T07:13:38.189Z,12.40
2018-09-22T07:14:38.164Z,10.50
2018-09-22T07:15:38.143Z,13.30
2018-09-22T07:16:38.129Z,12.50
2018-09-22T07:17:38.109Z,8.80
2018-09-22T07:18:38.087Z,11.80
2018-09-22T07:19:38.235Z,11.40
2018-09-22T07:20:38.047Z,9.40
2018-09-22T07:21:38.028Z,11.60
2018-09-22T07:22:38.017Z,9.50
2018-09-22T07:23:37.984Z,11.40
2018-09-22T07:24:37.966Z,10.90
2018-09-22T07:25:37.946Z,11.50
2018-09-22T07:26:37.927Z,11.70
2018-09-22T07:27:37.914Z,11.20
2018-09-22T07:28:37.893Z,10.60
2018-09-22T07:29:37.870Z,11.80
2018-09-22T07:30:37.851Z,8.80
2018-09-22T07:31:37.828Z,10.80
2018-09-22T07:32:37.811Z,9.80
2018-09-22T07:33:37.801Z,12.00
2018-09-22T07:34:37.769Z,11.40
2018-09-22T07:35:37.750Z,11.30
2018-09-22T07:36:37.731Z,11.90
2018-09-22T07:37:37.715Z,13.80
2018-09-22T07:38:37.697Z,8.90
2018-09-22T07:39:37.676Z,11.30
2018-09-22T07:40:37.654Z,9.50
2018-09-22T07:41:37.641Z,12.60
2018-09-22T07:42:37.612Z,14.30
2018-09-22T07:43:37.595Z,10.60
2018-09-22T07:44:37.574Z,11.40
2018-09-22T07:45:37.570Z,11.50
2018-09-22T07:46:37.536Z,12.30
2018-09-22T07:47:37.522Z,12.10
2018-09-22T07:48:37.497Z,10.10
2018-09-22T07:49:37.487Z,10.70
2018-09-22T07:50:37.461Z,12.80
2018-09-22T07:51:37.442Z,11.20
2018-09-22T07:52:37.430Z,12.70
2018-09-22T07:53:37.404Z,14.10
2018-09-22T07:54:37.385Z,10.40
2018-09-22T07:55:37.359Z,13.20
2018-09-22T07:56:37.352Z,10.20
2018-09-22T07:57:37.321Z,10.20
2018-09-22T07:58:37.362Z,13.90
2018-09-22T07:59:37.319Z,12.60
2018-09-22T08:00:37.264Z,12.80
2018-09-22T08:01:37.266Z,10.60
2018-09-22T08:02:37.224Z,15.60
2018-09-22T08:03:37.206Z,10.80
2018-09-22T08:04:37.188Z,13.00
2018-09-22T08:05:37.171Z,10.30
2018-09-22T08:06:37.147Z,12.40
2018-09-22T08:07:37.136Z,14.30
2018-09-22T08:08:37.109Z,13.00
2018-09-22T08:09:37.092Z,11.70
2018-09-22T08:10:37.069Z,12.90
2018-09-22T08:11:37.089Z,12.90
2018-09-22T08:12:37.032Z,12.50
2018-09-22T08:13:37.022Z,12.70
2018-09-22T08:14:37.002Z,12.70
2018-09-22T08:15:36.988Z,12.20
2018-09-22T08:16:36.974Z,10.40
2018-09-22T08:17:36.938Z,12.80
2018-09-22T08:18:36.921Z,12.50
2018-09-22T08:19:36.911Z,11.20
2018-09-22T08:20:36.879Z,7.40
2018-09-22T08:21:36.864Z,10.70
2018-09-22T08:22:36.839Z,9.70
2018-09-22T08:23:36.821Z,12.60
2018-09-22T08:24:36.802Z,12.20
2018-09-22T08:25:36.786Z,12.30
2018-09-22T08:26:36.820Z,11.10
2018-09-22T08:27:36.756Z,12.40
2018-09-22T08:28:36.731Z,8.10
2018-09-22T08:29:36.707Z,12.60
2018-09-22T08:30:36.699Z,14.80
2018-09-22T08:31:36.670Z,12.70
2018-09-22T08:32:36.674Z,12.60
2018-09-22T08:33:36.632Z,13.80
2018-09-22T08:34:36.614Z,11.90
2018-09-22T08:35:36.592Z,12.00
2018-09-22T08:36:36.963Z,10.60
2018-09-22T08:37:36.555Z,12.70
2018-09-22T08:38:36.539Z,10.00
2018-09-22T08:39:36.521Z,13.50
2018-09-22T08:40:36.501Z,14.10
2018-09-22T08:41:36.518Z,12.40
2018-09-22T08:42:36.463Z,10.80
2018-09-22T08:43:36.442Z,12.40
2018-09-22T08:44:36.430Z,12.90
2018-09-22T08:45:36.409Z,10.20
2018-09-22T08:46:36.389Z,10.20
2018-09-22T08:47:36.383Z,12.70
2018-09-22T08:48:36.350Z,8.50
2018-09-22T08:49:36.422Z,13.00
2018-09-22T08:50:36.316Z,9.60
2018-09-22T08:51:36.294Z,7.70
2018-09-22T08:52:36.272Z,15.40
2018-09-22T08:53:36.256Z,9.30
2018-09-22T08:54:36.246Z,11.80
2018-09-22T08:55:36.236Z,12.40
2018-09-22T08:56:36.198Z,9.50
2018-09-22T08:57:36.181Z,10.10
2018-09-22T08:58:36.166Z,12.50
2018-09-22T08:59:36.138Z,11.80
2018-09-22T09:00:36.240Z,9.80
2018-09-22T09:01:36.102Z,11.50
2018-09-22T09:02:36.082Z,12.80
2018-09-22T09:03:36.077Z,14.30
2018-09-22T09:04:36.048Z,12.80
2018-09-22T09:05:36.029Z,10.80
2018-09-22T09:06:36.009Z,12.90
2018-09-22T09:07:35.997Z,12.20
2018-09-22T09:08:35.970Z,11.60
2018-09-22T09:09:35.960Z,12.10
2018-09-22T09:10:35.937Z,13.90
2018-09-22T09:11:35.915Z,11.60
2018-09-22T09:12:35.902Z,12.30
2018-09-22T09:13:35.880Z,14.90
2018-09-22T09:14:35.881Z,13.40
2018-09-22T09:15:35.841Z,10.90
2018-09-22T09:16:35.822Z,15.30
2018-09-22T09:17:35.808Z,12.90
2018-09-22T09:18:35.791Z,14.60
2018-09-22T09:19:35.774Z,12.90
2018-09-22T09:20:35.747Z,9.80
2018-09-22T09:21:35.730Z,9.40
2018-09-22T09:22:35.709Z,12.20
2018-09-22T09:23:35.703Z,13.30
2018-09-22T09:24:35.671Z,13.20
2018-09-22T09:25:35.656Z,11.50
2018-09-22T09:26:35.649Z,10.30
2018-09-22T09:27:35.676Z,12.90
2018-09-22T09:28:35.599Z,10.90
2018-09-22T09:29:35.586Z,14.40
2018-09-22T09:30:35.562Z,10.80
2018-09-22T09:31:35.554Z,9.20
2018-09-22T09:32:35.528Z,11.00
2018-09-22T09:33:35.516Z,10.60
2018-09-22T09:34:35.490Z,10.10
2018-09-22T09:35:35.483Z,9.80
2018-09-22T09:36:35.451Z,11.10
2018-09-22T09:37:35.437Z,11.80
2018-09-22T09:38:35.414Z,12.80
2018-09-22T09:39:35.397Z,9.30
2018-09-22T09:40:35.379Z,10.20
2018-09-22T09:41:35.364Z,13.70
2018-09-22T09:42:35.338Z,9.90
2018-09-22T09:43:35.383Z,10.20
2018-09-22T09:44:35.304Z,12.50
2018-09-22T09:45:35.290Z,10.90
2018-09-22T09:46:35.275Z,8.50
2018-09-22T09:47:35.262Z,11.00
2018-09-22T09:48:35.230Z,12.00
2018-09-22T09:49:35.214Z,11.70
2018-09-22T09:50:35.208Z,10.70
2018-09-22T09:51:35.171Z,9.60
2018-09-22T09:52:35.160Z,10.10
2018-09-22T09:53:35.146Z,8.00
2018-09-22T09:54:35.190Z,11.40
2018-09-22T09:55:35.103Z,12.70
2018-09-22T09:56:35.079Z,10.60
2018-09-22T09:57:35.066Z,10.80
2018-09-22T09:58:35.048Z,13.10
2018-09-22T09:59:35.025Z,16.80
2018-09-22T10:00:35.007Z,9.60
2018-09-22T10:01:34.989Z,9.00
2018-09-22T10:02:34.971Z,12.80
2018-09-22T10:03:34.951Z,12.10
2018-09-22T10:04:34.988Z,13.30
2018-09-22T10:05:34.920Z,10.10
2018-09-22T10:06:34.893Z,11.90
2018-09-22T10:07:34.891Z,8.90
2018-09-22T10:08:34.858Z,13.20
2018-09-22T10:09:34.839Z,10.90
2018-09-22T10:10:34.829Z,12.40
2018-09-22T10:11:34.829Z,12.60
2018-09-22T10:12:34.789Z,10.40
2018-09-22T10:13:34.763Z,12.20
2018-09-22T10:14:34.748Z,13.30
2018-09-22T10:15:34.732Z,12.00
2018-09-22T10:16:34.713Z,11.00
2018-09-22T10:17:34.697Z,12.50
2018-09-22T10:18:34.670Z,11.80
2018-09-22T10:19:34.659Z,11.00
2018-09-22T10:20:34.643Z,11.70
2018-09-22T10:21:34.624Z,10.30
2018-09-22T10:22:34.598Z,10.50
2018-09-22T10:23:34.581Z,10.20
2018-09-22T10:24:34.564Z,10.60
2018-09-22T10:25:34.548Z,7.90
2018-09-22T10:26:34.524Z,10.00
2018-09-22T10:27:34.511Z,10.00
2018-09-22T10:28:34.592Z,11.00
2018-09-22T10:29:34.481Z,10.50
2018-09-22T10:30:34.449Z,11.40
2018-09-22T10:31:34.444Z,9.80
2018-09-22T10:32:34.423Z,9.70
2018-09-22T10:33:34.402Z,8.00
2018-09-22T10:34:34.378Z,8.40
2018-09-22T10:35:34.370Z,11.30
2018-09-22T10:36:34.349Z,8.00
2018-09-22T10:37:34.335Z,7.30
2018-09-22T10:38:34.306Z,6.80
2018-09-22T10:39:34.287Z,7.70
2018-09-22T10:40:34.269Z,8.90
2018-09-22T10:41:34.260Z,6.50
2018-09-22T10:42:34.233Z,9.80
2018-09-22T10:43:34.233Z,7.30
2018-09-22T10:44:34.209Z,7.20
2018-09-22T10:45:34.188Z,7.10
2018-09-22T10:46:34.160Z,8.50
2018-09-22T10:47:34.151Z,9.20
2018-09-22T10:48:34.129Z,9.20
2018-09-22T10:49:34.112Z,8.70
2018-09-22T10:50:34.089Z,11.30
2018-09-22T10:51:34.074Z,6.90
2018-09-22T10:52:34.080Z,7.20
2018-09-22T10:53:34.038Z,8.40
2018-09-22T10:54:34.025Z,8.30
2018-09-22T10:55:34.009Z,7.90
2018-09-22T10:56:33.985Z,8.00
2018-09-22T10:57:33.965Z,7.90
2018-09-22T10:58:33.945Z,7.20
2018-09-22T10:59:33.929Z,6.80
2018-09-22T11:00:33.910Z,7.00
2018-09-22T11:01:33.905Z,6.80
2018-09-22T11:02:33.882Z,7.30
2018-09-22T11:03:33.861Z,10.70
2018-09-22T11:04:33.840Z,6.60
2018-09-22T11:05:33.823Z,8.00
2018-09-22T11:06:33.804Z,4.30
2018-09-22T11:07:33.792Z,8.70
2018-09-22T11:08:33.766Z,7.10
2018-09-22T11:09:33.753Z,6.60
2018-09-22T11:10:33.727Z,5.70
2018-09-22T11:11:33.714Z,5.50
2018-09-22T11:12:33.694Z,8.00
2018-09-22T11:13:33.676Z,4.80
2018-09-22T11:14:33.658Z,7.00
2018-09-22T11:15:33.650Z,6.80
2018-09-22T11:16:33.625Z,7.70
2018-09-22T11:17:33.603Z,9.10
2018-09-22T11:18:33.596Z,5.30
2018-09-22T11:19:33.568Z,6.10
2018-09-22T11:20:33.549Z,5.10
2018-09-22T11:21:33.534Z,7.70
2018-09-22T11:22:33.563Z,6.90
2018-09-22T11:23:33.497Z,5.80
2018-09-22T11:24:33.479Z,4.00
2018-09-22T11:25:33.461Z,6.10
2018-09-22T11:26:33.445Z,6.50
2018-09-22T11:27:33.424Z,5.30
2018-09-22T11:28:33.409Z,5.60
2018-09-22T11:29:33.391Z,5.20
2018-09-22T11:30:33.369Z,5.30
2018-09-22T11:31:33.357Z,7.80
2018-09-22T11:32:33.338Z,9.80
2018-09-22T11:33:33.314Z,6.20
2018-09-22T11:34:33.307Z,6.50
2018-09-22T11:35:33.292Z,6.00
2018-09-22T11:36:33.268Z,5.70
2018-09-22T11:37:33.255Z,7.90
2018-09-22T11:38:33.225Z,4.90
2018-09-22T11:39:33.205Z,7.40
2018-09-22T11:40:33.188Z,7.10
2018-09-22T11:41:33.180Z,5.50
2018-09-22T11:42:33.157Z,9.60
2018-09-22T11:43:33.135Z,5.10
2018-09-22T11:44:33.129Z,8.10
2018-09-22T11:45:33.101Z,8.10
2018-09-22T11:46:33.080Z,5.50
2018-09-22T11:47:33.063Z,6.40
2018-09-22T11:48:33.051Z,6.60
2018-09-22T11:49:33.031Z,10.00
2018-09-22T11:50:33.008Z,4.80
2018-09-22T11:51:32.994Z,7.20
2018-09-22T11:52:32.974Z,6.60
2018-09-22T11:53:32.955Z,5.70
2018-09-22T11:54:32.937Z,6.90
2018-09-22T11:55:32.924Z,6.00
2018-09-22T11:56:32.942Z,6.80
2018-09-22T11:57:32.895Z,9.60
2018-09-22T11:58:32.865Z,7.10
2018-09-22T11:59:32.846Z,5.40
2018-09-22T12:00:32.836Z,7.80
2018-09-22T12:01:32.820Z,5.90
2018-09-22T12:02:32.808Z,7.10
2018-09-22T12:03:32.777Z,5.70
2018-09-22T12:04:32.757Z,7.80
2018-09-22T12:05:32.745Z,5.80
2018-09-22T12:06:32.876Z,5.00
2018-09-22T12:07:32.711Z,6.40
2018-09-22T12:08:32.688Z,5.80
2018-09-22T12:09:32.671Z,6.10
2018-09-22T12:10:32.648Z,7.70
2018-09-22T12:11:32.632Z,10.00
2018-09-22T12:12:32.621Z,8.80
2018-09-22T12:13:32.612Z,5.80
2018-09-22T12:14:32.587Z,7.20
2018-09-22T12:15:32.561Z,7.40
2018-09-22T12:16:32.543Z,4.80
2018-09-22T12:17:32.525Z,7.50
2018-09-22T12:18:32.516Z,7.30
2018-09-22T12:19:32.491Z,8.90
2018-09-22T12:20:32.473Z,6.10
2018-09-22T12:21:32.456Z,6.90
2018-09-22T12:22:32.440Z,5.80
2018-09-22T12:23:32.420Z,5.00
2018-09-22T12:24:32.402Z,7.20
2018-09-22T12:25:32.385Z,4.40
2018-09-22T12:26:32.366Z,5.50
2018-09-22T12:27:32.361Z,8.00
2018-09-22T12:28:32.354Z,5.00
2018-09-22T12:29:32.321Z,6.00
2018-09-22T12:30:32.296Z,5.50
2018-09-22T12:31:32.286Z,7.20
2018-09-22T12:32:32.258Z,6.60
2018-09-22T12:33:32.241Z,5.40
2018-09-22T12:34:32.223Z,5.50
2018-09-22T12:35:32.205Z,7.60
2018-09-22T12:36:32.192Z,6.70
2018-09-22T12:37:32.174Z,7.80
2018-09-22T12:38:32.152Z,6.00
2018-09-22T12:39:32.133Z,5.80
2018-09-22T12:40:32.116Z,6.60
2018-09-22T12:41:32.103Z,5.50
2018-09-22T12:42:32.086Z,7.90
2018-09-22T12:43:32.063Z,8.00
2018-09-22T12:44:32.047Z,7.60
2018-09-22T12:45:32.028Z,5.90
2018-09-22T12:46:32.019Z,6.30
2018-09-22T12:47:31.990Z,7.40
2018-09-22T12:48:31.973Z,5.50
2018-09-22T12:49:31.957Z,6.50
2018-09-22T12:50:31.942Z,6.80
2018-09-22T12:51:31.921Z,4.90
2018-09-22T12:52:31.913Z,6.90
2018-09-22T12:53:31.927Z,6.00
2018-09-22T12:54:31.868Z,7.40
2018-09-22T12:55:31.847Z,6.20
2018-09-22T12:56:31.836Z,6.40
2018-09-22T12:57:31.809Z,9.00
2018-09-22T12:58:31.794Z,9.80
2018-09-22T12:59:31.786Z,5.70
2018-09-22T13:00:31.763Z,8.70
2018-09-22T13:01:31.741Z,7.50
2018-09-22T13:02:31.726Z,7.30
2018-09-22T13:03:31.705Z,5.50
2018-09-22T13:04:31.689Z,6.90
2018-09-22T13:05:31.667Z,6.90
2018-09-22T13:06:31.659Z,7.20